Brazoria County Airport
KLBX : now visible

Airfield :











YOU CAN JOIN US ON...

 
LOGIN :

Register | Disclaimer

   EN    FR    IT 

 









Legend :    VFR   Marginal VFR   IFR   Intensive IFR   Very Intensive IFR
Visi :
Ceiling :
>= 8 km
>= 3000ft
5 to 8 km
1000 to 3000 ft
1500m to 5 km
500 to 1000 ft
800 to 1500m
200 to 500 ft
< 800m
< 200 ft
Symbols :   Thunderstorms  Fog  Heavy snow  Heavy precipitations  Wind > 20 kt






- Airport Elevation : 25 ft


KLBX - Brazoria County

CURRENT METAR :
  • 141953Z AUTO 13008KT 10SM CLR 21/12 A2982 RMK AO2 SLP098 T02110122

EXPIRED METARs :
  • 141853Z AUTO 16007KT 10SM CLR 22/12 A2985 RMK AO2 SLP106 T02220117
  • 141753Z AUTO 09005KT 10SM CLR 22/12 A2988 RMK AO2 SLP117 T02170117 10217 20067 58008

TAF KLBX
Valid from the 14 at 18:00 until the 15 at 18:00 UTC


141723Z 1418/1518 09007KT P6SM SKC
FM142200 15007KT P6SM SKC
FM150400 18007KT P6SM MIFG SCT015
FM150800 18008KT 3SM BR SCT008 BKN012
FM151500 18008KT 6SM BR BKN025



MET'MAP, your aeronautical weather chart ! - Copyright ORBIFLY December 2007 - Disclaimer

ORBIFLY MET'MAP TEAM :

Programming & Development : Alexandra Zaïnal
Concept & original design : Baudouin d'Aumeries
Assistance for programming : Marc-Olivier Méhu
Technical & hardware support : Manuel Goepfert

Contact : metmap@orbifly.com




SOURCES & CREDITS :

   NOAA       Earth
Advisory